Time;durP1;ratioP1;P1;durP2;ratioP2;P2;SDS_P1;SDS_P2;PMS_P1;PMS_P2;Temp;Humidity;BMP_temperature;BMP_pressure;BME280_temperature;BME280_humidity;BME280_pressure;Samples;Min_cycle;Max_cycle;Signal;HPM_P1;HPM_P2
2023/06/18 00:01:30;;;;;;;5.70;3.80;;;;;;;19.00;50.28;99761.44;5044783;28;20044;-49
2023/06/18 00:03:57;;;;;;;8.35;3.92;;;;;;;18.99;50.87;99764.09;5042282;28;20053;-48
2023/06/18 00:06:23;;;;;;;5.43;3.92;;;;;;;18.96;50.16;99762.47;5035328;28;20056;-48
2023/06/18 00:08:50;;;;;;;6.93;4.10;;;;;;;18.92;50.30;99758.28;5030006;28;20041;-47
2023/06/18 00:11:17;;;;;;;6.28;3.35;;;;;;;18.85;50.50;99751.56;5026975;28;20064;-49
2023/06/18 00:13:43;;;;;;;7.60;3.58;;;;;;;18.78;50.86;99756.19;5033395;28;20991;-47
2023/06/18 00:16:10;;;;;;;9.75;4.07;;;;;;;18.69;51.62;99765.34;5034647;28;20053;-48
2023/06/18 00:18:37;;;;;;;6.97;3.88;;;;;;;18.61;52.20;99762.19;5041430;28;20048;-46
2023/06/18 00:21:07;;;;;;;9.57;4.10;;;;;;;18.51;51.83;99761.69;5045414;28;20099;-47
2023/06/18 00:23:35;;;;;;;5.68;3.83;;;;;;;18.47;51.60;99762.72;5041535;28;20571;-49
2023/06/18 00:26:01;;;;;;;6.22;4.13;;;;;;;18.45;51.95;99754.94;5036125;28;20050;-47
2023/06/18 00:28:28;;;;;;;6.38;3.80;;;;;;;18.45;52.13;99738.34;5034851;28;20049;-46
2023/06/18 00:30:55;;;;;;;7.57;3.58;;;;;;;18.45;52.02;99733.97;5032260;28;20789;-49
2023/06/18 00:33:23;;;;;;;5.75;3.67;;;;;;;18.44;51.94;99734.84;5033131;28;20049;-50
2023/06/18 00:35:56;;;;;;;5.32;3.33;;;;;;;18.43;51.61;99735.78;5030422;28;20718;-48
2023/06/18 00:38:24;;;;;;;6.93;3.35;;;;;;;18.41;52.15;99732.34;5033388;28;20074;-49
2023/06/18 00:40:51;;;;;;;5.95;3.85;;;;;;;18.36;51.97;99729.94;5037230;28;20464;-48
2023/06/18 00:43:18;;;;;;;6.50;3.95;;;;;;;18.33;51.98;99729.19;5039300;28;20119;-50
2023/06/18 00:45:46;;;;;;;7.22;3.88;;;;;;;18.31;52.38;99725.78;5051396;28;20128;-48
2023/06/18 00:48:13;;;;;;;5.90;3.20;;;;;;;18.29;52.61;99732.84;5044961;28;20072;-47
2023/06/18 00:50:41;;;;;;;5.53;3.35;;;;;;;18.24;52.72;99731.25;5062727;28;20101;-47
2023/06/18 00:53:09;;;;;;;5.13;3.45;;;;;;;18.22;52.43;99733.09;5062085;28;20048;-48
2023/06/18 00:55:37;;;;;;;6.00;3.13;;;;;;;18.19;52.78;99727.97;5064645;28;20047;-52
2023/06/18 00:58:05;;;;;;;5.13;3.92;;;;;;;18.14;53.06;99719.47;5065831;28;20045;-49
2023/06/18 01:00:34;;;;;;;5.25;3.53;;;;;;;18.10;53.02;99723.09;5061920;28;20499;-50
2023/06/18 01:03:03;;;;;;;5.35;3.42;;;;;;;18.06;52.95;99721.47;5054400;28;20055;-49
2023/06/18 01:05:31;;;;;;;;;;;;;;;17.77;54.20;99726.09;5063840;28;20059;-47
2023/06/18 01:08:00;;;;;;;5.78;3.17;;;;;;;17.90;53.10;99724.69;5061573;28;19926;-49
2023/06/18 01:10:29;;;;;;;6.70;3.35;;;;;;;17.89;52.84;99725.59;5062358;28;20615;-49
2023/06/18 01:12:58;;;;;;;6.45;3.30;;;;;;;17.85;53.25;99730.13;5053738;28;20744;-49
2023/06/18 01:15:26;;;;;;;9.70;3.65;;;;;;;17.82;53.14;99726.75;5054721;28;20044;-50
2023/06/18 01:17:56;;;;;;;8.45;3.92;;;;;;;17.80;53.16;99715.50;5053485;28;20091;-49
2023/06/18 01:20:26;;;;;;;8.45;4.03;;;;;;;17.80;53.32;99715.50;5045291;28;20876;-49
2023/06/18 01:25:32;;;;;;;5.88;3.55;;;;;;;17.81;53.18;99706.72;5036147;27;20547;-49
2023/06/18 01:28:00;;;;;;;;;;;;;;;17.58;53.20;99713.69;5026761;28;20878;-49
2023/06/18 01:30:27;;;;;;;8.35;4.68;;;;;;;17.71;53.32;99712.31;5021022;28;20028;-49
2023/06/18 01:32:54;;;;;;;6.85;3.53;;;;;;;17.73;53.51;99715.72;5024140;28;20048;-48
2023/06/18 01:35:22;;;;;;;7.18;4.05;;;;;;;17.71;53.34;99712.31;5022959;28;20058;-52
2023/06/18 01:46:02;;;;;;;6.88;4.20;;;;;;;17.55;54.58;99684.97;5042413;27;20404;-50
2023/06/18 01:48:39;;;;;;;6.18;3.78;;;;;;;17.57;53.61;99693.66;5015228;28;20042;-48
2023/06/18 01:51:07;;;;;;;6.20;3.33;;;;;;;17.51;54.08;99691.25;5007110;28;20057;-49
2023/06/18 01:53:35;;;;;;;5.18;3.53;;;;;;;17.45;54.11;99698.44;5003822;28;20072;-52
2023/06/18 01:56:02;;;;;;;8.18;4.10;;;;;;;17.33;54.47;99691.03;5005855;28;20053;-51
2023/06/18 01:58:31;;;;;;;5.88;3.50;;;;;;;17.28;54.03;99685.09;5006046;28;20053;-50
2023/06/18 02:00:58;;;;;;;5.30;3.65;;;;;;;17.23;54.04;99694.88;5007080;28;20065;-48
2023/06/18 02:03:25;;;;;;;5.90;4.10;;;;;;;17.19;54.33;99689.75;5006455;28;20125;-48
2023/06/18 02:05:52;;;;;;;7.95;4.13;;;;;;;17.15;53.95;99685.53;4992372;28;20110;-49
2023/06/18 02:08:18;;;;;;;6.55;3.42;;;;;;;17.13;53.97;99684.78;5007060;28;20057;-48
2023/06/18 02:10:46;;;;;;;7.57;3.83;;;;;;;17.09;53.89;99677.91;5004670;28;20046;-47
2023/06/18 02:13:12;;;;;;;5.65;3.30;;;;;;;17.08;54.24;99677.06;5002414;28;20050;-47
2023/06/18 02:15:40;;;;;;;5.75;3.85;;;;;;;17.04;53.62;99674.59;5003273;28;20494;-48
2023/06/18 02:18:08;;;;;;;7.75;5.20;;;;;;;16.98;54.11;99675.66;5013448;28;20525;-49
2023/06/18 02:20:35;;;;;;;6.38;4.03;;;;;;;16.95;53.85;99671.38;5000010;28;20144;-47
2023/06/18 02:23:03;;;;;;;7.50;4.00;;;;;;;16.94;53.89;99680.16;5001139;28;20137;-47
2023/06/18 02:25:29;;;;;;;5.38;3.72;;;;;;;16.94;53.98;99669.69;4998994;28;20054;-48
2023/06/18 02:27:57;;;;;;;7.20;5.00;;;;;;;16.94;53.88;99674.91;5004377;28;20353;-46
2023/06/18 02:30:25;;;;;;;7.57;4.15;;;;;;;16.96;53.81;99678.31;5004510;28;20050;-47
2023/06/18 02:32:52;;;;;;;5.15;3.53;;;;;;;16.96;53.99;99670.47;5002860;28;20426;-46
2023/06/18 02:35:19;;;;;;;6.88;4.00;;;;;;;16.97;54.33;99676.56;5008716;28;20053;-46
2023/06/18 02:37:46;;;;;;;6.57;3.60;;;;;;;16.96;53.29;99667.84;5003295;28;20062;-47
2023/06/18 02:40:14;;;;;;;6.90;3.67;;;;;;;16.95;53.47;99671.38;5001548;28;20052;-47
2023/06/18 02:42:47;;;;;;;6.88;3.97;;;;;;;16.94;54.08;99674.91;4999189;28;20077;-47
2023/06/18 02:45:17;;;;;;;6.78;3.72;;;;;;;16.93;54.03;99665.34;4995666;28;20061;-47
2023/06/18 02:47:45;;;;;;;7.25;4.25;;;;;;;16.92;54.15;99671.50;4994753;28;20049;-48
2023/06/18 02:50:12;;;;;;;6.55;3.75;;;;;;;16.92;54.32;99671.50;4999629;28;20077;-50
2023/06/18 02:52:40;;;;;;;7.43;5.00;;;;;;;16.90;54.31;99673.31;4998561;28;20458;-47
2023/06/18 02:55:09;;;;;;;5.82;3.80;;;;;;;16.88;54.16;99672.50;4998136;28;20411;-48
2023/06/18 02:57:37;;;;;;;7.20;4.45;;;;;;;16.86;54.12;99669.09;4989076;28;20045;-47
2023/06/18 03:00:09;;;;;;;8.38;4.32;;;;;;;16.81;54.41;99678.84;4987745;28;20057;-48
2023/06/18 03:02:36;;;;;;;8.27;4.57;;;;;;;16.74;54.41;99678.22;4984761;28;20064;-47
2023/06/18 03:05:03;;;;;;;5.97;3.72;;;;;;;16.68;54.76;99679.28;4986560;28;20089;-50
2023/06/18 03:07:31;;;;;;;5.55;3.67;;;;;;;16.64;54.66;99667.22;4986428;28;20058;-50
2023/06/18 03:09:58;;;;;;;5.97;3.45;;;;;;;16.64;54.68;99653.28;4982572;28;20093;-47
2023/06/18 03:12:24;;;;;;;7.90;4.47;;;;;;;16.63;54.85;99641.13;4990121;28;20058;-49
2023/06/18 03:14:51;;;;;;;6.57;4.30;;;;;;;16.61;54.66;99651.63;4988151;28;20082;-47
2023/06/18 03:17:18;;;;;;;6.70;3.75;;;;;;;16.57;54.81;99650.03;4987238;28;20050;-47
2023/06/18 03:19:44;;;;;;;7.05;3.97;;;;;;;16.56;54.72;99648.34;4985029;28;20136;-47
2023/06/18 03:22:11;;;;;;;6.15;3.80;;;;;;;16.52;54.89;99642.34;4989264;28;20050;-46
2023/06/18 03:24:38;;;;;;;8.75;4.60;;;;;;;16.51;55.07;99647.66;4986898;28;20050;-46
2023/06/18 03:27:06;;;;;;;6.78;4.05;;;;;;;16.48;54.79;99645.13;4989689;28;20050;-48
2023/06/18 03:29:36;;;;;;;7.93;4.28;;;;;;;16.45;54.72;99646.94;4990859;28;20038;-47
2023/06/18 03:32:03;;;;;;;7.57;4.25;;;;;;;16.42;55.54;99635.72;4985277;28;20046;-46
2023/06/18 03:34:31;;;;;;;7.35;4.03;;;;;;;16.40;55.44;99643.63;4990578;28;20039;-46
2023/06/18 03:37:00;;;;;;;7.10;4.30;;;;;;;16.39;55.53;99636.69;4990228;28;20205;-47
2023/06/18 03:39:27;;;;;;;7.22;4.18;;;;;;;16.36;55.50;99625.47;4982047;28;20057;-47
2023/06/18 03:41:54;;;;;;;6.78;4.15;;;;;;;16.32;55.95;99617.72;4990538;28;20052;-46
2023/06/18 03:44:22;;;;;;;13.13;4.43;;;;;;;16.29;56.01;99630.94;4993002;28;20141;-49
2023/06/18 03:46:49;;;;;;;8.68;5.32;;;;;;;16.26;55.96;99623.19;4986731;28;20042;-47
2023/06/18 03:49:16;;;;;;;9.25;5.13;;;;;;;16.25;56.27;99624.06;4984907;28;20070;-48
2023/06/18 03:51:43;;;;;;;11.80;5.18;;;;;;;16.23;56.04;99622.41;4985231;28;20061;-46
2023/06/18 03:54:10;;;;;;;10.60;5.05;;;;;;;16.19;56.33;99627.72;4983231;28;20064;-48
2023/06/18 03:56:37;;;;;;;11.30;5.30;;;;;;;16.18;56.30;99633.88;4991061;28;20053;-47
2023/06/18 03:59:04;;;;;;;10.63;4.90;;;;;;;16.18;56.70;99628.66;4989041;28;20050;-50
2023/06/18 04:01:31;;;;;;;9.52;5.15;;;;;;;16.18;56.92;99627.81;4988486;28;20049;-47
2023/06/18 04:03:58;;;;;;;12.27;5.40;;;;;;;16.17;56.35;99621.72;4991868;28;20157;-47
2023/06/18 04:06:24;;;;;;;9.73;4.90;;;;;;;16.18;56.59;99626.03;4992054;28;20159;-47
2023/06/18 04:08:51;;;;;;;8.75;5.32;;;;;;;16.20;56.67;99631.22;4986783;28;20061;-49
2023/06/18 04:11:18;;;;;;;8.77;5.32;;;;;;;16.19;56.78;99617.28;4982162;28;20038;-46
2023/06/18 04:13:44;;;;;;;7.50;5.25;;;;;;;16.21;56.58;99621.63;4989048;28;20058;-46
2023/06/18 04:16:11;;;;;;;11.23;5.95;;;;;;;16.20;56.92;99618.16;4988130;28;20104;-47
2023/06/18 04:18:37;;;;;;;11.63;4.70;;;;;;;16.19;56.89;99627.72;4991695;28;20076;-47
2023/06/18 04:21:04;;;;;;;8.60;4.75;;;;;;;16.17;57.27;99621.72;4988727;28;20054;-47
2023/06/18 04:23:31;;;;;;;9.70;5.55;;;;;;;16.20;56.37;99623.38;4992409;28;20124;-48
2023/06/18 04:25:57;;;;;;;10.93;5.47;;;;;;;16.22;56.95;99625.94;4989271;28;20050;-49
2023/06/18 04:28:24;;;;;;;8.98;5.53;;;;;;;16.23;57.02;99625.03;4987695;28;20076;-48
2023/06/18 04:30:51;;;;;;;12.73;5.72;;;;;;;16.25;56.84;99636.28;4991676;28;20056;-49
2023/06/18 04:33:17;;;;;;;10.13;5.43;;;;;;;16.25;57.09;99638.91;4989097;28;20101;-46
2023/06/18 04:35:45;;;;;;;9.40;5.60;;;;;;;16.27;57.18;99631.84;4987248;28;20505;-46
2023/06/18 04:38:12;;;;;;;11.98;5.45;;;;;;;16.30;57.17;99631.75;4988628;28;20060;-47
2023/06/18 04:40:38;;;;;;;10.55;5.57;;;;;;;16.28;57.34;99639.66;4981605;28;20520;-46
2023/06/18 04:43:05;;;;;;;10.75;5.22;;;;;;;16.26;57.06;99641.47;4986702;28;21401;-47
2023/06/18 04:45:32;;;;;;;10.25;5.55;;;;;;;16.26;57.16;99645.84;4988676;28;20053;-47
2023/06/18 04:47:59;;;;;;;9.10;5.13;;;;;;;16.26;57.00;99645.84;4984866;28;20043;-47
2023/06/18 04:50:26;;;;;;;9.00;5.05;;;;;;;16.26;57.79;99644.09;4985405;28;20104;-49
2023/06/18 04:52:52;;;;;;;10.48;5.18;;;;;;;16.26;57.36;99645.84;4984765;28;20506;-47
2023/06/18 04:55:19;;;;;;;9.52;5.63;;;;;;;16.27;57.83;99642.31;4981522;28;20046;-48
2023/06/18 04:57:46;;;;;;;11.18;6.00;;;;;;;16.28;57.69;99650.09;4985752;28;20485;-47
2023/06/18 05:00:13;;;;;;;11.18;5.53;;;;;;;16.30;57.24;99637.84;4985721;28;20498;-47
2023/06/18 05:02:39;;;;;;;8.18;4.90;;;;;;;16.32;57.73;99641.25;4987261;28;20061;-46
2023/06/18 05:05:07;;;;;;;11.55;6.00;;;;;;;16.32;57.64;99629.97;4986851;28;20064;-48
2023/06/18 05:07:34;;;;;;;10.30;4.65;;;;;;;16.31;57.83;99641.31;4989318;28;20577;-48
2023/06/18 05:10:01;;;;;;;8.88;5.00;;;;;;;16.34;57.39;99641.19;4988126;28;20750;-47
2023/06/18 05:12:28;;;;;;;10.07;5.65;;;;;;;16.35;58.09;99635.06;4985062;28;20078;-47
2023/06/18 05:14:54;;;;;;;10.38;5.63;;;;;;;16.39;57.92;99635.84;4989277;28;20057;-47
2023/06/18 05:17:21;;;;;;;12.55;5.35;;;;;;;16.41;58.14;99629.66;4983819;28;20077;-47
2023/06/18 05:19:48;;;;;;;10.02;5.68;;;;;;;16.42;58.28;99631.34;4984758;28;20728;-48
2023/06/18 05:22:14;;;;;;;8.63;5.25;;;;;;;16.46;58.03;99632.13;4985441;28;20054;-48
2023/06/18 05:24:41;;;;;;;8.90;4.75;;;;;;;16.50;57.69;99630.22;4987143;28;20038;-50
2023/06/18 05:27:08;;;;;;;9.30;5.50;;;;;;;16.56;57.97;99633.47;4989578;28;20050;-47
2023/06/18 05:29:34;;;;;;;10.60;6.05;;;;;;;16.60;58.08;99629.03;4984216;28;20046;-48
2023/06/18 05:32:01;;;;;;;8.82;5.35;;;;;;;16.63;57.73;99621.06;4985102;28;20061;-49
2023/06/18 05:34:27;;;;;;;9.13;5.78;;;;;;;16.67;57.61;99625.28;4982153;28;20042;-49
2023/06/18 05:36:54;;;;;;;13.48;6.28;;;;;;;16.68;57.62;99632.22;4981775;28;20050;-46
2023/06/18 05:39:21;;;;;;;13.25;5.75;;;;;;;16.71;57.84;99626.03;4985482;28;20038;-49
2023/06/18 05:41:50;;;;;;;10.10;6.00;;;;;;;16.78;57.68;99621.41;4985491;28;20077;-51
2023/06/18 05:44:17;;;;;;;10.27;6.03;;;;;;;16.84;58.01;99621.22;4987240;28;20046;-48
2023/06/18 05:46:44;;;;;;;11.48;5.50;;;;;;;16.92;57.70;99627.03;4985773;28;20042;-47
2023/06/18 05:49:11;;;;;;;10.18;5.75;;;;;;;17.02;57.73;99619.69;4981577;28;20046;-48
2023/06/18 05:51:37;;;;;;;11.32;5.78;;;;;;;17.10;57.33;99624.69;4987728;28;20054;-47
2023/06/18 05:54:04;;;;;;;10.43;5.22;;;;;;;17.16;57.66;99629.69;4986473;28;20050;-50
2023/06/18 05:56:31;;;;;;;8.65;4.93;;;;;;;17.18;57.44;99633.09;4988153;28;20513;-46
2023/06/18 05:58:57;;;;;;;9.82;5.82;;;;;;;17.23;57.57;99632.09;4980504;28;20061;-47
2023/06/18 06:01:24;;;;;;;8.50;5.60;;;;;;;17.25;57.30;99635.50;4981247;28;20068;-46
2023/06/18 06:03:51;;;;;;;8.85;5.47;;;;;;;17.24;57.38;99628.53;4983575;28;20101;-47
2023/06/18 06:06:18;;;;;;;10.10;5.47;;;;;;;17.25;57.05;99618.03;4985064;28;20050;-45
2023/06/18 06:08:44;;;;;;;11.82;6.05;;;;;;;17.28;57.28;99624.91;4986124;28;20046;-45
2023/06/18 06:11:11;;;;;;;9.18;5.07;;;;;;;17.29;56.96;99631.88;4981015;28;20069;-48
2023/06/18 06:13:38;;;;;;;11.90;6.10;;;;;;;17.32;56.54;99636.97;4987599;28;20046;-48
2023/06/18 06:16:04;;;;;;;9.18;5.55;;;;;;;17.32;57.49;99637.81;4986701;28;20133;-47
2023/06/18 06:18:31;;;;;;;10.63;5.78;;;;;;;17.34;57.24;99635.16;4981796;28;20073;-48
2023/06/18 06:20:58;;;;;;;11.65;6.38;;;;;;;17.38;57.01;99647.22;4981984;28;20050;-47
2023/06/18 06:23:25;;;;;;;11.77;6.57;;;;;;;17.41;56.80;99649.72;4985228;28;20049;-48
2023/06/18 06:25:51;;;;;;;10.38;5.55;;;;;;;17.41;57.64;99641.88;4983360;28;20038;-48
2023/06/18 06:28:18;;;;;;;10.40;5.65;;;;;;;17.44;57.57;99647.00;4983878;28;20056;-47
2023/06/18 06:30:45;;;;;;;10.55;5.75;;;;;;;17.44;57.06;99636.53;4987142;28;20068;-46
2023/06/18 06:33:12;;;;;;;10.82;5.93;;;;;;;17.44;57.20;99646.13;4991764;28;20140;-49
2023/06/18 06:35:39;;;;;;;13.02;5.80;;;;;;;17.45;56.91;99638.22;4985513;28;20050;-48
2023/06/18 06:38:06;;;;;;;10.18;6.10;;;;;;;17.47;57.20;99643.41;4993218;28;20050;-46
2023/06/18 06:40:32;;;;;;;10.55;5.85;;;;;;;17.53;57.61;99644.94;4991302;28;20046;-46
2023/06/18 06:42:59;;;;;;;10.00;6.18;;;;;;;17.59;57.25;99639.44;4987262;28;20057;-46
2023/06/18 06:45:27;;;;;;;9.73;5.25;;;;;;;17.68;56.99;99643.47;4986527;28;20061;-47
2023/06/18 06:47:54;;;;;;;10.98;5.97;;;;;;;17.77;57.23;99642.28;4990335;28;20050;-46
2023/06/18 06:50:21;;;;;;;11.52;5.97;;;;;;;17.85;57.45;99642.81;4984574;28;20042;-47
2023/06/18 06:52:48;;;;;;;10.20;5.30;;;;;;;17.90;56.76;99643.47;4989391;28;20072;-45
2023/06/18 06:55:15;;;;;;;10.25;6.93;;;;;;;17.92;57.18;99657.38;4987941;28;20430;-49
2023/06/18 06:57:42;;;;;;;9.32;5.22;;;;;;;17.98;57.59;99656.28;4984744;28;20073;-48
2023/06/18 07:00:10;;;;;;;9.25;5.70;;;;;;;18.01;57.04;99657.94;4986651;28;20077;-49
2023/06/18 07:02:37;;;;;;;12.32;5.85;;;;;;;18.03;56.64;99664.81;4987017;23;20043;-47
2023/06/18 07:05:06;;;;;;;9.55;6.07;;;;;;;18.04;57.07;99665.66;4916492;28;20047;-49
2023/06/18 07:07:33;;;;;;;11.18;5.85;;;;;;;18.06;56.42;99664.69;4945231;28;20054;-48
2023/06/18 07:10:00;;;;;;;11.02;5.20;;;;;;;18.05;57.02;99667.38;4951443;28;20050;-48
2023/06/18 07:12:27;;;;;;;10.00;5.75;;;;;;;18.05;56.57;99662.13;4950910;28;22044;-48
2023/06/18 07:14:53;;;;;;;9.95;5.15;;;;;;;18.05;56.76;99664.75;4950662;28;20051;-52
2023/06/18 07:17:20;;;;;;;10.32;6.03;;;;;;;18.05;56.56;99667.38;4944245;28;20169;-50
2023/06/18 07:19:47;;;;;;;9.63;5.43;;;;;;;18.03;56.80;99667.44;4952623;28;20129;-50
2023/06/18 07:22:14;;;;;;;8.93;5.07;;;;;;;18.03;56.57;99663.97;4950165;28;20051;-51
2023/06/18 07:24:40;;;;;;;9.57;5.15;;;;;;;18.02;57.33;99670.09;4949442;28;20051;-48
2023/06/18 07:27:07;;;;;;;9.02;5.18;;;;;;;17.96;57.45;99679.06;4945152;28;20054;-50
2023/06/18 07:29:34;;;;;;;11.00;5.75;;;;;;;17.92;58.23;99675.72;4950112;28;20043;-51
2023/06/18 07:32:01;;;;;;;11.10;5.53;;;;;;;17.91;58.36;99675.78;4944810;28;20053;-50
2023/06/18 07:34:27;;;;;;;10.55;5.43;;;;;;;17.88;58.43;99666.28;4946033;28;20078;-48
2023/06/18 07:36:54;;;;;;;15.23;6.30;;;;;;;17.86;58.56;99655.00;4942293;28;20718;-48
2023/06/18 07:39:20;;;;;;;10.50;6.07;;;;;;;17.83;58.72;99652.50;4945359;28;20055;-51
2023/06/18 07:41:49;;;;;;;9.75;5.85;;;;;;;17.79;59.01;99649.16;4941821;28;20055;-47
2023/06/18 07:44:16;;;;;;;12.60;6.28;;;;;;;17.73;59.95;99652.88;4948617;28;20086;-48
2023/06/18 07:46:43;;;;;;;13.02;6.32;;;;;;;17.69;59.91;99640.81;4943252;28;20047;-47
2023/06/18 07:49:11;;;;;;;9.23;6.00;;;;;;;17.68;60.44;99644.34;4949632;28;20149;-51
2023/06/18 07:51:37;;;;;;;11.70;6.75;;;;;;;17.66;59.93;99646.16;4943652;28;20051;-51
2023/06/18 07:54:05;;;;;;;11.82;6.30;;;;;;;17.64;60.73;99650.63;4941112;28;20070;-49
2023/06/18 07:56:32;;;;;;;11.75;6.60;;;;;;;17.64;60.19;99648.00;4945568;28;20085;-50
2023/06/18 07:58:59;;;;;;;10.73;6.00;;;;;;;17.69;60.41;99634.69;4944848;28;20082;-51
2023/06/18 08:01:26;;;;;;;11.70;6.45;;;;;;;17.76;60.21;99635.34;4948406;28;20047;-49
2023/06/18 08:03:52;;;;;;;10.88;6.15;;;;;;;17.82;60.57;99637.69;4947948;28;20055;-51
2023/06/18 08:06:19;;;;;;;14.63;6.50;;;;;;;17.89;61.19;99631.31;4951780;28;20043;-51
2023/06/18 08:08:48;;;;;;;10.25;6.35;;;;;;;18.00;61.46;99633.47;4950579;28;20060;-52
2023/06/18 08:11:15;;;;;;;11.10;6.32;;;;;;;18.11;60.78;99635.72;4946703;28;20052;-49
2023/06/18 08:13:42;;;;;;;14.18;7.50;;;;;;;18.19;60.34;99638.88;4944990;28;20055;-51
2023/06/18 08:16:08;;;;;;;15.38;7.28;;;;;;;18.28;61.03;99631.53;4944824;28;20050;-50
2023/06/18 08:18:35;;;;;;;11.55;6.85;;;;;;;18.36;60.90;99629.44;4944949;28;20082;-54
2023/06/18 08:21:02;;;;;;;11.60;6.63;;;;;;;18.46;60.93;99620.28;4944706;28;20401;-48
2023/06/18 08:23:29;;;;;;;11.85;6.95;;;;;;;18.59;60.81;99618.00;4936136;28;20055;-48
2023/06/18 08:25:56;;;;;;;11.90;6.82;;;;;;;18.72;60.55;99615.69;4946306;28;20053;-51
2023/06/18 08:28:22;;;;;;;10.80;7.03;;;;;;;18.87;60.80;99613.28;4946615;28;20065;-51
2023/06/18 08:30:50;;;;;;;11.75;7.00;;;;;;;19.01;60.76;99603.03;4944113;28;20047;-49
2023/06/18 08:33:16;;;;;;;13.25;7.40;;;;;;;19.18;60.45;99604.06;4948399;28;20390;-49
2023/06/18 08:35:43;;;;;;;13.23;7.40;;;;;;;19.37;60.85;99600.59;4949019;28;20054;-50
2023/06/18 08:38:10;;;;;;;12.07;7.07;;;;;;;19.53;59.85;99596.31;4944280;28;20070;-47
2023/06/18 08:40:49;;;;;;;11.35;7.43;;;;;;;19.67;60.61;99597.44;4941208;28;20058;-51
2023/06/18 08:43:21;;;;;;;12.48;7.15;;;;;;;19.84;60.42;99598.41;4940349;28;20499;-48
2023/06/18 08:45:51;;;;;;;11.98;7.75;;;;;;;19.99;60.08;99592.41;4940148;28;20066;-52
2023/06/18 08:48:26;;;;;;;12.10;7.13;;;;;;;20.17;60.00;99595.06;4936968;28;20127;-48
2023/06/18 08:51:03;;;;;;;13.48;7.50;;;;;;;20.39;59.70;99593.97;4940082;28;20142;-47
2023/06/18 08:53:39;;;;;;;14.52;9.13;;;;;;;20.59;59.21;99594.72;4939375;28;20644;-52
2023/06/18 08:56:07;;;;;;;12.02;7.30;;;;;;;20.76;59.54;99594.69;4939118;28;20047;-47
2023/06/18 08:58:40;;;;;;;11.60;7.40;;;;;;;21.01;58.81;99596.03;4940851;28;21743;-47
2023/06/18 09:01:07;;;;;;;14.45;8.48;;;;;;;21.26;58.41;99592.09;4944241;28;20047;-49
2023/06/18 09:06:12;;;;;;;12.40;7.43;;;;;;;21.76;57.69;99594.66;5052186;28;20398;-47
2023/06/18 09:08:39;;;;;;;11.82;7.78;;;;;;;21.93;57.02;99590.19;5019576;28;20053;-51
2023/06/18 09:11:06;;;;;;;11.93;7.35;;;;;;;22.07;56.70;99595.53;5019191;28;20056;-51
2023/06/18 09:13:33;;;;;;;11.95;7.07;;;;;;;22.31;57.18;99586.25;5019924;28;20041;-47
2023/06/18 09:16:00;;;;;;;12.75;7.75;;;;;;;22.55;56.95;99583.06;5019735;28;20046;-46
2023/06/18 09:18:27;;;;;;;14.05;8.07;;;;;;;22.77;56.55;99582.66;5016721;28;20140;-47
2023/06/18 09:20:54;;;;;;;13.73;7.72;;;;;;;22.93;55.87;99587.81;5023138;28;20053;-49
2023/06/18 09:23:21;;;;;;;14.25;7.70;;;;;;;23.08;55.53;99579.88;5020494;28;20052;-48
2023/06/18 09:25:56;;;;;;;13.23;8.07;;;;;;;23.31;55.79;99583.72;5018537;28;20041;-47
2023/06/18 09:28:26;;;;;;;11.80;7.38;;;;;;;23.53;55.09;99573.56;4999041;28;20057;-52
2023/06/18 09:30:58;;;;;;;12.60;8.00;;;;;;;23.66;54.73;99576.28;5026242;28;20493;-47
2023/06/18 09:33:31;;;;;;;12.45;8.02;;;;;;;23.75;54.47;99567.75;5019274;28;20053;-47
2023/06/18 09:36:00;;;;;;;13.50;7.57;;;;;;;23.78;54.33;99569.34;5020432;28;20472;-51
2023/06/18 09:41:13;;;;;;;13.23;9.70;;;;;;;23.96;53.92;99569.91;5030587;28;20401;-48
2023/06/18 09:43:43;;;;;;;13.77;11.02;;;;;;;24.02;53.85;99566.88;5027900;28;20056;-49
2023/06/18 09:46:10;;;;;;;13.88;10.95;;;;;;;24.09;54.16;99565.50;5022519;28;20366;-50
2023/06/18 09:48:40;;;;;;;14.68;10.63;;;;;;;24.25;54.36;99561.84;5022043;28;20112;-50
2023/06/18 09:51:07;;;;;;;16.05;10.98;;;;;;;24.45;53.83;99564.94;5020623;28;20049;-48
2023/06/18 09:53:34;;;;;;;14.15;10.80;;;;;;;24.54;54.01;99561.63;5024866;28;20052;-48
2023/06/18 09:56:16;;;;;;;14.20;11.20;;;;;;;24.61;53.80;99557.63;5029612;28;20669;-51
2023/06/18 09:58:46;;;;;;;12.80;9.80;;;;;;;24.74;53.42;99562.03;5022987;28;20057;-49
2023/06/18 10:01:14;;;;;;;13.63;10.38;;;;;;;24.82;52.91;99561.53;5024282;28;20056;-51
2023/06/18 10:03:41;;;;;;;13.95;10.05;;;;;;;24.89;52.94;99553.03;5019759;28;20049;-46
2023/06/18 10:08:47;;;;;;;13.18;8.50;;;;;;;25.20;52.88;99543.84;5044802;28;20397;-52
2023/06/18 10:11:15;;;;;;;12.77;8.73;;;;;;;25.31;52.36;99549.22;5017886;28;20050;-50
2023/06/18 10:16:27;;;;;;;13.55;8.93;;;;;;;25.57;52.24;99535.88;5033150;27;20406;-49
2023/06/18 10:19:03;;;;;;;13.57;9.25;;;;;;;25.71;51.61;99526.06;5014850;28;20072;-50
2023/06/18 10:21:33;;;;;;;12.23;8.43;;;;;;;25.88;51.71;99530.09;5032222;28;20655;-49
2023/06/18 10:24:18;;;;;;;12.45;7.90;;;;;;;26.02;51.98;99518.44;5022823;28;20041;-51
2023/06/18 10:26:46;;;;;;;14.93;8.52;;;;;;;26.13;51.19;99515.81;4983378;28;20077;-49
2023/06/18 10:29:12;;;;;;;11.93;8.27;;;;;;;26.14;50.75;99508.69;5022990;28;20061;-49
2023/06/18 10:31:39;;;;;;;12.57;7.97;;;;;;;26.11;51.77;99517.72;5021587;28;20053;-54
2023/06/18 10:34:06;;;;;;;11.48;8.82;;;;;;;26.01;51.09;99508.78;5021844;28;20046;-46
2023/06/18 10:36:33;;;;;;;11.88;8.57;;;;;;;26.12;51.28;99506.16;5021443;28;20060;-51
2023/06/18 10:39:01;;;;;;;12.77;8.48;;;;;;;26.30;50.75;99500.41;5019391;28;20056;-47
2023/06/18 10:41:28;;;;;;;11.98;8.43;;;;;;;26.52;50.87;99494.28;5020920;28;20061;-49
2023/06/18 10:43:55;;;;;;;13.43;8.88;;;;;;;26.78;50.98;99493.16;5016780;28;20049;-49
2023/06/18 10:46:22;;;;;;;13.73;9.55;;;;;;;26.85;50.22;99497.00;5017616;28;20045;-47
2023/06/18 10:49:19;;;;;;;10.05;8.00;;;;;;;26.86;49.83;99490.72;5021368;28;20045;-51
2023/06/18 10:54:54;;;;;;;11.75;7.18;;;;;;;27.20;49.29;99488.03;5028204;28;20404;-50
2023/06/18 10:57:28;;;;;;;10.68;7.60;;;;;;;27.33;49.07;99497.66;4994101;28;20046;-49
2023/06/18 10:59:56;;;;;;;9.68;7.68;;;;;;;27.40;48.99;99485.53;5010226;28;20049;-52
2023/06/18 11:02:33;;;;;;;12.70;8.73;;;;;;;27.23;48.91;99486.06;4992823;28;20049;-50
2023/06/18 11:04:59;;;;;;;12.77;9.30;;;;;;;27.13;49.44;99485.97;4981940;28;20047;-53
2023/06/18 11:07:27;;;;;;;10.52;8.30;;;;;;;27.24;49.45;99493.06;4985561;28;20893;-52
2023/06/18 11:09:57;;;;;;;14.25;8.45;;;;;;;27.27;49.07;99487.50;4996712;28;20046;-52
2023/06/18 11:12:26;;;;;;;11.70;8.00;;;;;;;27.32;48.72;99474.69;4982638;28;20110;-50
2023/06/18 11:15:16;;;;;;;10.52;8.07;;;;;;;27.39;49.09;99480.34;4997190;28;21037;-52
2023/06/18 11:17:44;;;;;;;13.13;8.70;;;;;;;27.55;49.04;99469.25;5012613;28;20489;-50
2023/06/18 11:20:12;;;;;;;12.73;7.90;;;;;;;27.65;48.81;99472.00;4988851;28;20046;-46
2023/06/18 11:22:41;;;;;;;14.23;9.98;;;;;;;27.74;47.51;99468.59;4992455;28;20738;-50
2023/06/18 11:25:09;;;;;;;11.73;8.45;;;;;;;27.84;48.20;99471.31;4994582;28;20046;-49
2023/06/18 11:27:42;;;;;;;10.70;8.77;;;;;;;27.92;48.22;99468.84;4989489;28;20468;-48
2023/06/18 11:30:10;;;;;;;10.70;8.52;;;;;;;28.00;48.04;99462.00;4985707;28;20051;-48
2023/06/18 11:32:39;;;;;;;9.73;7.43;;;;;;;28.02;48.24;99462.72;4998564;28;20042;-48
2023/06/18 11:35:07;;;;;;;11.45;8.90;;;;;;;27.99;47.54;99460.34;4978446;28;20073;-51
2023/06/18 11:37:37;;;;;;;11.88;7.80;;;;;;;27.80;48.47;99461.91;4987856;28;20057;-50
2023/06/18 11:40:07;;;;;;;9.27;7.00;;;;;;;27.84;48.26;99450.88;4995300;28;20054;-49
2023/06/18 11:42:36;;;;;;;9.52;7.25;;;;;;;27.89;47.75;99445.16;4992977;28;20480;-51
2023/06/18 11:45:05;;;;;;;12.23;6.78;;;;;;;27.91;48.29;99453.00;4986513;28;20283;-50
2023/06/18 11:47:34;;;;;;;11.02;7.43;;;;;;;28.01;47.67;99450.38;4991405;28;20216;-47
2023/06/18 11:50:01;;;;;;;10.27;7.32;;;;;;;28.04;47.80;99447.47;4990055;28;20042;-49
2023/06/18 11:52:29;;;;;;;8.30;6.53;;;;;;;28.15;47.58;99455.38;4996137;28;20403;-49
2023/06/18 11:55:03;;;;;;;9.27;7.30;;;;;;;28.21;47.98;99454.00;4985128;28;20051;-50
2023/06/18 11:57:30;;;;;;;11.68;7.22;;;;;;;28.29;47.40;99450.69;4982722;28;20102;-47